createdAt,value
2019-01-11T00:02:26.103Z,101652.09
2019-01-11T00:07:28.546Z,101650.23
2019-01-11T00:12:30.987Z,101638.95
2019-01-11T00:17:33.428Z,101636.39
2019-01-11T00:22:35.865Z,101631.56
2019-01-11T00:27:44.750Z,101624.44
2019-01-11T00:32:47.148Z,101632.98
2019-01-11T00:37:49.595Z,101625.88
2019-01-11T00:42:52.048Z,101638.46
2019-01-11T00:47:54.549Z,101638.97
2019-01-11T00:52:56.969Z,101633.50
2019-01-11T00:57:59.443Z,101631.90
2019-01-11T01:03:01.899Z,101637.63
2019-01-11T01:08:04.337Z,101642.45
2019-01-11T01:13:06.803Z,101639.52
2019-01-11T01:18:09.260Z,101633.27
2019-01-11T01:23:11.714Z,101627.56
2019-01-11T01:28:14.166Z,101636.61
2019-01-11T01:33:16.624Z,101644.05
2019-01-11T01:38:19.071Z,101635.89
2019-01-11T01:43:21.527Z,101634.72
2019-01-11T01:48:23.978Z,101641.45
2019-01-11T01:53:26.449Z,101652.77
2019-01-11T01:58:28.909Z,101645.50
2019-01-11T02:03:31.381Z,101653.64
2019-01-11T02:08:33.853Z,101647.88
2019-01-11T02:13:36.330Z,101648.27
2019-01-11T02:18:38.785Z,101648.58
2019-01-11T02:23:41.242Z,101640.77
2019-01-11T02:28:43.699Z,101636.72
2019-01-11T02:33:46.159Z,101626.81
2019-01-11T02:38:48.673Z,101626.56
2019-01-11T02:43:51.125Z,101626.44
2019-01-11T02:48:53.604Z,101627.23
2019-01-11T02:53:56.051Z,101614.61
2019-01-11T02:58:58.526Z,101613.30
2019-01-11T03:04:00.980Z,101619.70
2019-01-11T03:09:03.443Z,101618.13
2019-01-11T03:14:05.910Z,101612.19
2019-01-11T03:19:08.440Z,101609.80
2019-01-11T03:24:10.908Z,101616.94
2019-01-11T03:29:13.395Z,101613.78
2019-01-11T03:34:15.848Z,101607.03
2019-01-11T03:39:18.304Z,101611.16
2019-01-11T03:44:20.779Z,101600.84
2019-01-11T03:49:23.248Z,101608.99
2019-01-11T03:54:25.688Z,101609.06
2019-01-11T03:59:28.138Z,101615.56
2019-01-11T04:04:30.591Z,101618.39
2019-01-11T04:09:33.052Z,101611.83
2019-01-11T04:14:35.533Z,101624.78
2019-01-11T04:19:37.994Z,101621.50
2019-01-11T04:24:43.353Z,101619.53
2019-01-11T04:29:45.822Z,101615.38
2019-01-11T04:34:48.269Z,101610.95
2019-01-11T04:39:50.741Z,101616.28
2019-01-11T04:44:53.238Z,101621.17
2019-01-11T04:49:55.700Z,101618.48
2019-01-11T04:54:58.166Z,101624.55
2019-01-11T05:00:00.633Z,101614.16
2019-01-11T05:05:03.120Z,101616.92
2019-01-11T05:10:05.588Z,101608.42
2019-01-11T05:15:08.038Z,101611.38
2019-01-11T05:20:16.574Z,101608.45
2019-01-11T05:25:12.977Z,101607.42
2019-01-11T05:30:15.529Z,101604.33
2019-01-11T05:35:17.963Z,101614.70
2019-01-11T05:40:20.415Z,101612.91
2019-01-11T05:45:22.865Z,101603.98
2019-01-11T05:50:25.382Z,101608.31
2019-01-11T05:55:30.365Z,101611.07
2019-01-11T06:00:32.830Z,101620.13
2019-01-11T06:05:35.276Z,101613.30
2019-01-11T06:10:37.740Z,101613.06
2019-01-11T06:15:40.218Z,101613.14
2019-01-11T06:20:42.681Z,101614.13
2019-01-11T06:25:45.284Z,101614.61
2019-01-11T06:36:02.849Z,101611.34
2019-01-11T06:41:05.371Z,101599.87
2019-01-11T06:46:07.825Z,101603.51
2019-01-11T06:51:10.302Z,101603.77
2019-01-11T06:56:12.767Z,101609.63
2019-01-11T07:01:15.253Z,101602.04
2019-01-11T07:06:17.699Z,101599.91
2019-01-11T07:11:20.248Z,101603.89
2019-01-11T07:16:22.709Z,101599.42
2019-01-11T07:21:25.190Z,101600.48
2019-01-11T07:26:27.658Z,101604.45
2019-01-11T07:31:30.112Z,101607.98
2019-01-11T07:36:32.578Z,101604.86
2019-01-11T07:41:35.049Z,101598.18
2019-01-11T07:46:37.498Z,101603.39
2019-01-11T07:51:39.988Z,101602.23
2019-01-11T07:56:42.520Z,101604.98
2019-01-11T08:01:44.971Z,101607.24
2019-01-11T08:06:47.435Z,101606.61
2019-01-11T08:11:49.897Z,101610.81
2019-01-11T08:16:52.361Z,101601.14
2019-01-11T08:21:54.829Z,101608.20
2019-01-11T08:26:57.292Z,101605.48
2019-01-11T08:31:59.752Z,101603.06
2019-01-11T08:37:02.208Z,101603.59
2019-01-11T08:42:04.663Z,101611.96
2019-01-11T08:47:07.114Z,101613.69
2019-01-11T08:52:09.567Z,101602.44
2019-01-11T08:57:12.349Z,101594.38
2019-01-11T09:02:14.816Z,101591.75
2019-01-11T09:07:17.272Z,101596.09
2019-01-11T09:12:19.725Z,101604.25
2019-01-11T09:17:22.190Z,101597.64
2019-01-11T09:22:24.647Z,101594.00
2019-01-11T09:27:27.147Z,101592.06
2019-01-11T09:32:29.596Z,101595.55
2019-01-11T09:37:32.046Z,101587.64
2019-01-11T09:42:34.509Z,101591.41
2019-01-11T09:47:37.014Z,101595.08
2019-01-11T09:52:39.476Z,101597.19
2019-01-11T09:57:41.953Z,101596.31
2019-01-11T10:02:44.428Z,101591.48
2019-01-11T10:07:46.891Z,101586.58
2019-01-11T10:12:49.362Z,101588.55
2019-01-11T10:17:51.814Z,101591.01
2019-01-11T10:22:54.293Z,101588.05
2019-01-11T10:27:56.742Z,101578.29
2019-01-11T10:32:59.530Z,101568.14
2019-01-11T10:38:01.989Z,101556.23
2019-01-11T10:43:04.469Z,101563.39
2019-01-11T10:48:06.938Z,101552.83
2019-01-11T10:53:09.391Z,101545.72
2019-01-11T10:58:11.825Z,101546.53
2019-01-11T11:03:14.294Z,101539.05
2019-01-11T11:08:16.769Z,101538.13
2019-01-11T11:13:19.244Z,101527.59
2019-01-11T11:18:21.703Z,101534.98
2019-01-11T11:23:24.180Z,101531.22
2019-01-11T11:28:26.634Z,101523.01
2019-01-11T11:33:29.102Z,101507.75
2019-01-11T11:38:31.567Z,101505.98
2019-01-11T11:43:34.025Z,101513.98
2019-01-11T11:48:36.493Z,101508.27
2019-01-11T11:53:38.957Z,101508.40
2019-01-11T11:58:41.419Z,101509.99
2019-01-11T12:03:43.893Z,101484.92
2019-01-11T12:08:49.719Z,101486.45
2019-01-11T12:13:52.184Z,101483.75
2019-01-11T12:18:54.649Z,101478.37
2019-01-11T12:23:57.110Z,101475.61
2019-01-11T12:28:59.656Z,101475.96
2019-01-11T12:34:02.062Z,101456.08
2019-01-11T12:39:04.555Z,101458.70
2019-01-11T12:44:07.026Z,101458.13
2019-01-11T12:49:09.519Z,101449.19
2019-01-11T12:54:11.986Z,101448.13
2019-01-11T12:59:14.462Z,101446.58
2019-01-11T13:04:16.912Z,101439.65
2019-01-11T13:09:19.384Z,101431.75
2019-01-11T13:14:21.851Z,101439.70
2019-01-11T13:19:24.371Z,101438.34
2019-01-11T13:24:26.853Z,101438.64
2019-01-11T13:29:29.312Z,101448.16
2019-01-11T13:34:32.851Z,101431.22
2019-01-11T13:39:34.239Z,101436.27
2019-01-11T13:44:36.702Z,101440.27
2019-01-11T13:49:39.188Z,101427.69
2019-01-11T13:54:41.649Z,101428.05
2019-01-11T13:59:44.124Z,101439.94
2019-01-11T14:04:46.650Z,101433.48
2019-01-11T14:09:49.106Z,101425.76
2019-01-11T14:14:51.564Z,101434.34
2019-01-11T14:19:54.062Z,101441.30
2019-01-11T14:24:56.522Z,101438.05
2019-01-11T14:29:59.004Z,101438.47
2019-01-11T14:35:01.491Z,101442.80
2019-01-11T14:40:03.948Z,101443.58
2019-01-11T14:45:06.404Z,101442.95
2019-01-11T14:50:11.551Z,101451.69
2019-01-11T14:55:14.024Z,101453.86
2019-01-11T15:00:19.129Z,101448.91
2019-01-11T15:05:21.611Z,101459.08
2019-01-11T15:10:24.076Z,101451.09
2019-01-11T15:15:26.563Z,101456.09
2019-01-11T15:20:29.088Z,101447.06
2019-01-11T15:25:31.561Z,101449.84
2019-01-11T15:30:34.026Z,101450.19
2019-01-11T15:35:36.496Z,101444.30
2019-01-11T15:40:38.960Z,101445.98
2019-01-11T15:45:41.456Z,101452.05
2019-01-11T15:50:46.852Z,101451.54
2019-01-11T15:55:49.345Z,101434.34
2019-01-11T16:00:51.823Z,101427.64
2019-01-11T16:06:15.601Z,101433.75
2019-01-11T16:11:29.960Z,101424.15
2019-01-11T16:16:32.441Z,101421.66
2019-01-11T16:21:34.901Z,101431.56
2019-01-11T16:26:37.435Z,101427.20
2019-01-11T16:31:39.880Z,101423.09
2019-01-11T16:36:42.347Z,101424.78
2019-01-11T16:41:44.824Z,101426.70
2019-01-11T16:46:47.293Z,101431.70
2019-01-11T16:51:49.763Z,101433.53
2019-01-11T16:56:52.230Z,101433.03
2019-01-11T17:01:54.711Z,101445.21
2019-01-11T17:06:57.165Z,101441.11
2019-01-11T17:11:59.625Z,101441.23
2019-01-11T17:17:02.111Z,101440.11
2019-01-11T17:22:04.588Z,101429.06
2019-01-11T17:27:07.059Z,101422.34
2019-01-11T17:32:09.524Z,101418.30
2019-01-11T17:37:12.014Z,101421.35
2019-01-11T17:42:14.489Z,101430.06
2019-01-11T17:47:16.969Z,101439.43
2019-01-11T17:52:19.433Z,101440.42
2019-01-11T17:57:21.935Z,101440.95
2019-01-11T18:02:24.400Z,101430.95
2019-01-11T18:07:26.874Z,101436.89
2019-01-11T18:12:29.330Z,101431.54
2019-01-11T18:17:31.818Z,101426.54
2019-01-11T18:22:34.290Z,101426.60
2019-01-11T18:27:36.773Z,101431.59
2019-01-11T18:32:39.257Z,101441.83
2019-01-11T18:37:41.733Z,101442.07
2019-01-11T18:42:44.202Z,101428.19
2019-01-11T18:47:46.693Z,101435.88
2019-01-11T18:52:49.179Z,101429.36
2019-01-11T18:57:51.647Z,101434.16
2019-01-11T19:02:54.119Z,101435.88
2019-01-11T19:07:56.578Z,101437.36
2019-01-11T19:13:01.912Z,101430.66
2019-01-11T19:18:04.356Z,101437.90
2019-01-11T19:23:06.889Z,101434.38
2019-01-11T19:28:09.371Z,101430.66
2019-01-11T19:33:11.852Z,101438.58
2019-01-11T19:38:14.380Z,101439.43
2019-01-11T19:43:16.822Z,101436.61
2019-01-11T19:48:19.306Z,101452.28
2019-01-11T19:53:27.405Z,101448.25
2019-01-11T19:58:24.279Z,101449.60
2019-01-11T20:03:26.781Z,101442.31
2019-01-11T20:08:29.245Z,101431.20
2019-01-11T20:13:31.714Z,101430.91
2019-01-11T20:18:34.249Z,101423.36
2019-01-11T20:23:37.034Z,101421.38
2019-01-11T20:28:39.137Z,101418.66
2019-01-11T20:33:41.619Z,101431.27
2019-01-11T20:38:44.089Z,101434.72
2019-01-11T20:43:46.550Z,101429.72
2019-01-11T20:48:49.028Z,101432.39
2019-01-11T20:53:51.489Z,101427.37
2019-01-11T20:58:54.000Z,101424.86
2019-01-11T21:03:56.458Z,101424.37
2019-01-11T21:08:58.937Z,101426.39
2019-01-11T21:14:01.404Z,101434.03
2019-01-11T21:19:03.875Z,101432.66
2019-01-11T21:24:06.408Z,101444.34
2019-01-11T21:29:08.926Z,101438.73
2019-01-11T21:34:11.403Z,101436.45
2019-01-11T21:39:13.891Z,101440.57
2019-01-11T21:44:16.334Z,101445.04
2019-01-11T21:49:18.856Z,101444.20
2019-01-11T21:54:21.286Z,101435.52
2019-01-11T21:59:23.789Z,101445.27
2019-01-11T22:04:26.261Z,101446.45
2019-01-11T22:09:28.749Z,101449.57
2019-01-11T22:14:31.213Z,101450.97
2019-01-11T22:19:33.728Z,101453.77
2019-01-11T22:24:36.183Z,101453.56
2019-01-11T22:29:38.654Z,101456.97
2019-01-11T22:34:41.124Z,101445.85
2019-01-11T22:39:43.648Z,101428.98
2019-01-11T22:44:46.125Z,101442.40
2019-01-11T22:49:48.572Z,101436.21
2019-01-11T22:54:51.036Z,101442.86
2019-01-11T22:59:53.498Z,101443.97
2019-01-11T23:04:55.976Z,101444.82
2019-01-11T23:09:58.434Z,101443.30
2019-01-11T23:15:00.907Z,101441.83
2019-01-11T23:20:03.387Z,101433.59
2019-01-11T23:25:05.847Z,101443.41
2019-01-11T23:30:08.284Z,101446.58
2019-01-11T23:35:10.739Z,101439.81
2019-01-11T23:40:13.206Z,101443.58
2019-01-11T23:45:15.679Z,101447.12
2019-01-11T23:50:18.147Z,101452.81
2019-01-11T23:55:20.607Z,101442.88
